createdAt,value
2022-08-07T00:02:36.132Z,64.67
2022-08-07T00:05:05.628Z,64.39
2022-08-07T00:07:40.122Z,64.36
2022-08-07T00:10:30.035Z,65.58
2022-08-07T00:13:24.038Z,64.62
2022-08-07T00:15:53.312Z,65.15
2022-08-07T00:18:28.167Z,65.16
2022-08-07T00:21:08.186Z,65.05
2022-08-07T00:23:54.808Z,65.01
2022-08-07T00:26:49.058Z,65.64
2022-08-07T00:29:13.919Z,65.01
2022-08-07T00:31:44.384Z,65.72
2022-08-07T00:34:18.443Z,64.64
2022-08-07T00:36:50.312Z,65.11
2022-08-07T00:39:22.336Z,63.94
2022-08-07T00:42:04.782Z,64.32
2022-08-07T00:44:38.407Z,64.75
2022-08-07T00:47:15.954Z,64.60
2022-08-07T00:50:20.696Z,64.61
2022-08-07T00:52:47.710Z,63.83
2022-08-07T00:55:17.444Z,64.20
2022-08-07T00:57:56.193Z,64.33
2022-08-07T01:00:25.857Z,64.23
2022-08-07T01:02:55.565Z,64.12
2022-08-07T01:05:24.930Z,64.34
2022-08-07T01:07:55.268Z,64.66
2022-08-07T01:10:25.050Z,64.81
2022-08-07T01:12:54.653Z,64.49
2022-08-07T01:15:35.857Z,64.02
2022-08-07T01:18:17.713Z,64.96
2022-08-07T01:21:22.835Z,65.06
2022-08-07T01:23:56.013Z,64.29
2022-08-07T01:26:26.172Z,65.18
2022-08-07T01:28:56.325Z,64.70
2022-08-07T01:31:42.414Z,65.01
2022-08-07T01:34:14.412Z,65.74
2022-08-07T01:36:44.435Z,64.67
2022-08-07T01:39:22.523Z,64.83
2022-08-07T01:41:55.260Z,65.38
2022-08-07T01:44:38.012Z,65.21
2022-08-07T01:47:14.353Z,64.79
2022-08-07T01:49:58.278Z,64.64
2022-08-07T01:52:32.188Z,65.36
2022-08-07T01:55:04.343Z,64.51
2022-08-07T01:58:01.127Z,64.52
2022-08-07T02:00:30.291Z,65.31
2022-08-07T02:03:18.230Z,65.04
2022-08-07T02:06:08.902Z,65.04
2022-08-07T02:08:56.509Z,65.45
2022-08-07T02:11:57.769Z,64.30
2022-08-07T02:14:35.913Z,64.77
2022-08-07T02:17:09.030Z,64.61
2022-08-07T02:20:04.739Z,65.60
2022-08-07T02:22:34.833Z,66.18
2022-08-07T02:25:17.451Z,66.47
2022-08-07T02:27:52.310Z,65.63
2022-08-07T02:30:22.174Z,66.68
2022-08-07T02:33:07.508Z,68.42
2022-08-07T02:36:27.133Z,67.63
2022-08-07T02:38:37.622Z,66.08
2022-08-07T02:41:10.849Z,65.99
2022-08-07T02:43:47.645Z,67.08
2022-08-07T02:46:22.932Z,67.42
2022-08-07T02:48:55.431Z,65.29
2022-08-07T02:51:42.921Z,65.75
2022-08-07T02:54:18.837Z,65.77
2022-08-07T02:56:50.466Z,64.77
2022-08-07T02:59:27.708Z,65.09
2022-08-07T03:02:02.220Z,65.34
2022-08-07T03:04:32.765Z,65.86
2022-08-07T03:07:07.326Z,65.56
2022-08-07T03:09:44.737Z,65.47
2022-08-07T03:12:22.479Z,65.93
2022-08-07T03:15:02.585Z,65.60
2022-08-07T03:17:54.013Z,65.12
2022-08-07T03:20:25.095Z,65.80
2022-08-07T03:22:55.162Z,65.51
2022-08-07T03:25:27.038Z,65.56
2022-08-07T03:28:36.980Z,67.20
2022-08-07T03:31:14.239Z,67.99
2022-08-07T03:33:48.967Z,67.98
2022-08-07T03:36:22.084Z,66.92
2022-08-07T03:39:05.584Z,66.93
2022-08-07T03:41:41.767Z,66.16
2022-08-07T03:44:12.580Z,67.21
2022-08-07T03:47:14.023Z,66.90
2022-08-07T03:49:35.581Z,67.01
2022-08-07T03:52:07.009Z,67.45
2022-08-07T03:54:54.321Z,67.10
2022-08-07T03:58:34.143Z,68.06
2022-08-07T04:00:21.041Z,68.34
2022-08-07T04:02:59.518Z,67.91
2022-08-07T04:05:28.800Z,68.49
2022-08-07T04:08:16.260Z,69.00
2022-08-07T04:10:54.616Z,68.81
2022-08-07T04:14:32.897Z,68.99
2022-08-07T04:16:32.301Z,68.90
2022-08-07T04:19:04.132Z,69.17
2022-08-07T04:21:47.953Z,69.41
2022-08-07T04:24:33.663Z,68.83
2022-08-07T04:27:20.312Z,69.40
2022-08-07T04:30:02.187Z,69.76
2022-08-07T04:32:35.269Z,69.74
2022-08-07T04:35:11.381Z,69.59
2022-08-07T04:38:02.741Z,68.71
2022-08-07T04:40:30.013Z,69.33
2022-08-07T04:43:03.530Z,69.53
2022-08-07T04:46:12.348Z,69.48
2022-08-07T04:49:01.588Z,70.01
2022-08-07T04:52:28.135Z,69.89
2022-08-07T04:58:07.303Z,69.53
2022-08-07T04:58:49.611Z,70.23
2022-08-07T05:02:20.478Z,70.33
2022-08-07T05:05:11.312Z,70.57
2022-08-07T05:08:07.863Z,71.19
2022-08-07T05:10:45.906Z,70.46
2022-08-07T05:14:56.530Z,70.54
2022-08-07T05:16:21.349Z,71.17
2022-08-07T05:19:02.597Z,69.47
2022-08-07T05:21:59.999Z,69.55
2022-08-07T05:24:30.521Z,69.27
2022-08-07T05:28:02.910Z,68.07
2022-08-07T05:30:05.455Z,68.42
2022-08-07T05:32:35.667Z,67.16
2022-08-07T05:35:07.756Z,66.46
2022-08-07T05:37:40.832Z,66.05
2022-08-07T05:40:17.634Z,65.76
2022-08-07T05:42:55.550Z,64.95
2022-08-07T05:45:46.525Z,64.82
2022-08-07T05:48:16.587Z,64.81
2022-08-07T05:50:47.346Z,64.54
2022-08-07T05:54:12.144Z,63.77
2022-08-07T05:56:13.427Z,64.97
2022-08-07T05:58:52.577Z,64.13
2022-08-07T06:01:24.818Z,64.08
2022-08-07T06:03:58.897Z,64.44
2022-08-07T06:06:32.604Z,63.73
2022-08-07T06:09:04.489Z,64.71
2022-08-07T06:11:39.682Z,64.60
2022-08-07T06:14:11.521Z,63.26
2022-08-07T06:16:50.691Z,64.43
2022-08-07T06:19:47.979Z,63.39
2022-08-07T06:22:23.482Z,62.57
2022-08-07T06:25:01.465Z,61.96
2022-08-07T06:28:00.228Z,62.26
2022-08-07T06:30:31.894Z,61.34
2022-08-07T06:33:16.295Z,60.70
2022-08-07T06:36:06.067Z,61.17
2022-08-07T06:38:37.198Z,59.63
2022-08-07T06:42:01.094Z,60.67
2022-08-07T06:44:34.003Z,58.25
2022-08-07T06:47:10.222Z,57.01
2022-08-07T06:49:51.658Z,57.88
2022-08-07T06:52:36.701Z,57.41
2022-08-07T06:55:31.348Z,57.31
2022-08-07T06:58:11.607Z,57.83
2022-08-07T07:00:43.852Z,57.27
2022-08-07T07:03:17.300Z,56.87
2022-08-07T07:06:04.026Z,56.44
2022-08-07T07:08:36.314Z,57.15
2022-08-07T07:11:14.502Z,57.96
2022-08-07T07:14:02.241Z,57.46
2022-08-07T07:16:45.341Z,56.91
2022-08-07T07:19:56.579Z,56.74
2022-08-07T07:22:36.745Z,55.88
2022-08-07T07:26:32.867Z,55.92
2022-08-07T07:28:42.571Z,56.30
2022-08-07T07:31:21.851Z,56.19
2022-08-07T07:34:00.047Z,55.40
2022-08-07T07:36:32.939Z,55.21
2022-08-07T07:39:05.799Z,54.64
2022-08-07T07:42:01.904Z,55.10
2022-08-07T07:44:29.876Z,54.86
2022-08-07T07:47:13.956Z,54.11
2022-08-07T07:50:33.398Z,53.96
2022-08-07T07:52:40.201Z,53.47
2022-08-07T07:55:11.514Z,52.93
2022-08-07T07:57:52.133Z,52.38
2022-08-07T08:00:29.369Z,52.38
2022-08-07T08:03:16.762Z,52.48
2022-08-07T08:05:59.509Z,50.82
2022-08-07T08:08:36.843Z,49.79
2022-08-07T08:11:16.424Z,49.70
2022-08-07T08:13:54.189Z,50.46
2022-08-07T08:16:40.783Z,49.24
2022-08-07T08:20:17.253Z,49.97
2022-08-07T08:22:37.453Z,49.19
2022-08-07T08:25:49.455Z,48.44
2022-08-07T08:28:38.204Z,45.98
2022-08-07T08:31:22.902Z,45.49
2022-08-07T08:34:04.125Z,45.88
2022-08-07T08:36:36.935Z,44.66
2022-08-07T08:39:10.203Z,45.40
2022-08-07T08:42:02.692Z,44.80
2022-08-07T08:44:44.849Z,44.76
2022-08-07T08:47:32.782Z,45.99
2022-08-07T08:50:54.657Z,47.15
2022-08-07T08:53:45.858Z,47.19
2022-08-07T08:56:37.878Z,47.44
2022-08-07T08:59:42.339Z,47.34
2022-08-07T09:02:46.262Z,47.34
2022-08-07T09:05:48.735Z,47.63
2022-08-07T09:09:09.390Z,47.95
2022-08-07T09:12:30.092Z,48.25
2022-08-07T09:16:25.842Z,48.83
2022-08-07T09:18:22.664Z,48.50
2022-08-07T09:21:33.813Z,48.20
2022-08-07T09:24:55.241Z,48.68
2022-08-07T09:28:02.968Z,49.10
2022-08-07T09:31:10.958Z,49.73
2022-08-07T09:34:27.870Z,49.68
2022-08-07T09:37:48.463Z,48.85
2022-08-07T09:40:54.806Z,48.68
2022-08-07T09:44:05.545Z,48.66
2022-08-07T09:47:59.171Z,48.59
2022-08-07T09:51:25.988Z,48.81
2022-08-07T09:54:03.849Z,49.03
2022-08-07T09:57:13.062Z,48.44
2022-08-07T10:00:14.502Z,48.29
2022-08-07T10:07:24.383Z,47.26
2022-08-07T10:12:00.224Z,47.91
2022-08-07T10:14:23.127Z,48.16
2022-08-07T10:18:00.279Z,50.05
2022-08-07T10:20:51.797Z,50.97
2022-08-07T10:24:06.893Z,49.90
2022-08-07T10:27:17.731Z,49.91
2022-08-07T10:30:18.380Z,48.89
2022-08-07T10:34:05.932Z,47.81
2022-08-07T10:38:00.353Z,49.21
2022-08-07T10:40:35.851Z,48.60
2022-08-07T10:43:36.341Z,48.18
2022-08-07T10:46:20.569Z,48.15
2022-08-07T10:49:49.398Z,47.35
2022-08-07T10:52:51.925Z,47.55
2022-08-07T10:55:58.697Z,46.71
2022-08-07T10:59:30.466Z,47.69
2022-08-07T11:02:32.843Z,46.47
2022-08-07T11:05:48.677Z,45.70
2022-08-07T11:09:11.422Z,45.36
2022-08-07T11:12:02.192Z,45.46
2022-08-07T11:15:00.686Z,45.84
2022-08-07T11:18:12.479Z,44.40
2022-08-07T11:20:57.191Z,44.48
2022-08-07T11:24:10.112Z,44.57
2022-08-07T11:28:02.405Z,45.92
2022-08-07T11:31:11.561Z,45.72
2022-08-07T11:34:22.843Z,45.79
2022-08-07T11:37:13.709Z,44.30
2022-08-07T11:40:22.961Z,45.04
2022-08-07T11:43:54.224Z,44.30
2022-08-07T11:47:13.960Z,44.08
2022-08-07T11:50:44.584Z,44.71
2022-08-07T11:54:22.155Z,44.51
2022-08-07T11:57:12.756Z,40.82
2022-08-07T12:00:11.411Z,39.99
2022-08-07T12:03:41.859Z,41.32
2022-08-07T12:07:03.913Z,40.25
2022-08-07T12:10:19.450Z,41.51
2022-08-07T12:13:11.497Z,41.76
2022-08-07T12:16:09.116Z,41.64
2022-08-07T12:19:14.767Z,41.45
2022-08-07T12:22:38.759Z,40.88
2022-08-07T12:26:05.629Z,41.51
2022-08-07T12:29:37.627Z,43.06
2022-08-07T12:32:34.989Z,42.31
2022-08-07T12:35:09.850Z,42.10
2022-08-07T12:38:10.056Z,42.24
2022-08-07T12:40:48.516Z,42.49
2022-08-07T12:44:02.038Z,42.06
2022-08-07T12:46:57.018Z,41.99
2022-08-07T12:50:05.163Z,41.81
2022-08-07T12:53:17.986Z,42.28
2022-08-07T12:56:22.626Z,42.54
2022-08-07T12:58:57.096Z,42.20
2022-08-07T13:01:36.145Z,41.78
2022-08-07T13:06:03.597Z,41.06
2022-08-07T13:08:30.895Z,39.65
2022-08-07T13:12:03.566Z,37.40
2022-08-07T13:15:03.984Z,39.30
2022-08-07T13:18:26.867Z,38.16
2022-08-07T13:21:59.745Z,37.97
2022-08-07T13:25:30.587Z,39.75
2022-08-07T13:28:39.944Z,38.13
2022-08-07T13:31:26.561Z,39.36
2022-08-07T13:34:37.218Z,39.11
2022-08-07T13:38:01.450Z,38.02
2022-08-07T13:40:51.056Z,38.73
2022-08-07T13:43:24.036Z,38.03
2022-08-07T13:46:21.529Z,38.17
2022-08-07T13:48:58.555Z,37.63
2022-08-07T13:52:22.334Z,38.25
2022-08-07T13:54:33.473Z,37.92
2022-08-07T13:57:09.809Z,37.38
2022-08-07T13:59:55.247Z,37.10
2022-08-07T14:02:33.281Z,36.87
2022-08-07T14:05:16.412Z,36.87
2022-08-07T14:07:59.995Z,36.71
2022-08-07T14:10:42.325Z,36.50
2022-08-07T14:13:22.646Z,36.84
2022-08-07T14:16:15.386Z,37.42
2022-08-07T14:18:56.954Z,37.83
2022-08-07T14:22:03.956Z,36.90
2022-08-07T14:24:49.082Z,37.42
2022-08-07T14:28:10.716Z,36.75
2022-08-07T14:30:32.984Z,36.48
2022-08-07T14:33:05.348Z,36.35
2022-08-07T14:35:45.327Z,36.31
2022-08-07T14:38:30.377Z,36.59
2022-08-07T14:41:05.720Z,38.12
2022-08-07T14:43:55.467Z,37.09
2022-08-07T14:46:33.849Z,36.58
2022-08-07T14:49:17.311Z,36.69
2022-08-07T14:52:03.170Z,35.60
2022-08-07T14:54:54.231Z,36.25
2022-08-07T14:57:55.099Z,35.86
2022-08-07T15:03:19.393Z,36.70
2022-08-07T15:05:54.617Z,36.68
2022-08-07T15:08:54.749Z,36.22
2022-08-07T15:11:50.771Z,36.41
2022-08-07T15:14:25.499Z,36.07
2022-08-07T15:17:12.680Z,36.98
2022-08-07T15:22:55.050Z,35.72
2022-08-07T15:25:36.423Z,35.92
2022-08-07T15:28:34.158Z,36.40
2022-08-07T15:31:05.832Z,35.74
2022-08-07T15:33:42.781Z,35.31
2022-08-07T15:36:13.434Z,36.10
2022-08-07T15:38:51.203Z,35.57
2022-08-07T15:42:43.288Z,36.06
2022-08-07T15:44:24.025Z,35.78
2022-08-07T15:47:09.043Z,35.30
2022-08-07T15:50:05.298Z,36.39
2022-08-07T15:52:40.638Z,35.99
2022-08-07T15:55:18.742Z,36.68
2022-08-07T15:57:53.895Z,36.55
2022-08-07T16:00:40.006Z,35.71
2022-08-07T16:03:47.021Z,36.02
2022-08-07T16:06:13.093Z,36.34
2022-08-07T16:08:48.137Z,35.92
2022-08-07T16:12:12.308Z,35.81
2022-08-07T16:15:56.339Z,36.94
2022-08-07T16:19:17.110Z,36.42
2022-08-07T16:22:55.084Z,37.33
2022-08-07T16:25:52.735Z,36.93
2022-08-07T16:30:06.674Z,36.24
2022-08-07T16:32:34.629Z,38.02
2022-08-07T16:35:51.779Z,37.64
2022-08-07T16:39:33.742Z,37.52
2022-08-07T16:43:07.744Z,38.52
2022-08-07T16:46:47.284Z,37.64
2022-08-07T16:50:20.625Z,35.31
2022-08-07T16:52:51.762Z,35.67
2022-08-07T16:55:47.407Z,35.86
2022-08-07T16:59:14.494Z,35.92
2022-08-07T17:02:50.949Z,36.35
2022-08-07T17:06:01.772Z,36.48
2022-08-07T17:09:09.116Z,36.37
2022-08-07T17:12:34.140Z,37.02
2022-08-07T17:15:44.458Z,37.13
2022-08-07T17:19:03.985Z,37.20
2022-08-07T17:21:53.233Z,36.53
2022-08-07T17:24:53.161Z,36.54
2022-08-07T17:27:50.782Z,36.96
2022-08-07T17:30:26.496Z,36.96
2022-08-07T17:34:09.669Z,38.01
2022-08-07T17:36:33.181Z,37.27
2022-08-07T17:39:58.778Z,36.76
2022-08-07T17:43:17.859Z,36.69
2022-08-07T17:46:18.475Z,37.22
2022-08-07T17:49:52.183Z,37.03
2022-08-07T17:52:55.431Z,37.93
2022-08-07T17:55:56.590Z,37.33
2022-08-07T17:58:56.969Z,38.17
2022-08-07T18:01:40.563Z,38.56
2022-08-07T18:04:52.434Z,38.16
2022-08-07T18:07:34.312Z,38.26
2022-08-07T18:10:33.984Z,38.14
2022-08-07T18:13:23.312Z,39.37
2022-08-07T18:16:32.607Z,39.24
2022-08-07T18:21:05.802Z,38.69
2022-08-07T18:22:50.743Z,39.27
2022-08-07T18:25:40.550Z,39.49
2022-08-07T18:28:34.481Z,39.82
2022-08-07T18:31:18.857Z,40.04
2022-08-07T18:35:00.604Z,39.68
2022-08-07T18:38:58.181Z,39.77
2022-08-07T18:42:19.895Z,40.25
2022-08-07T18:45:42.764Z,40.95
2022-08-07T18:50:05.694Z,40.96
2022-08-07T18:52:38.023Z,40.95
2022-08-07T18:55:41.957Z,40.88
2022-08-07T18:58:51.362Z,40.80
2022-08-07T19:02:32.502Z,41.24
2022-08-07T19:06:04.179Z,41.58
2022-08-07T19:08:54.865Z,42.40
2022-08-07T19:12:20.616Z,41.98
2022-08-07T19:16:05.065Z,42.02
2022-08-07T19:19:13.096Z,43.09
2022-08-07T19:22:14.902Z,42.43
2022-08-07T19:24:50.324Z,42.07
2022-08-07T19:28:56.655Z,42.47
2022-08-07T19:31:01.705Z,41.85
2022-08-07T19:33:15.613Z,42.71
2022-08-07T19:35:56.961Z,42.13
2022-08-07T19:38:30.367Z,42.32
2022-08-07T19:41:00.971Z,42.69
2022-08-07T19:43:50.123Z,42.50
2022-08-07T19:46:33.635Z,42.33
2022-08-07T19:49:57.845Z,43.53
2022-08-07T19:52:19.743Z,42.43
2022-08-07T19:54:56.337Z,42.92
2022-08-07T19:58:02.349Z,43.18
2022-08-07T20:00:34.775Z,43.96
2022-08-07T20:03:34.647Z,42.91
2022-08-07T20:06:04.593Z,43.55
2022-08-07T20:08:40.957Z,43.08
2022-08-07T20:11:23.263Z,43.21
2022-08-07T20:14:31.649Z,43.46
2022-08-07T20:17:05.835Z,43.87
2022-08-07T20:19:47.662Z,42.73
2022-08-07T20:22:29.143Z,42.97
2022-08-07T20:25:12.519Z,43.14
2022-08-07T20:27:58.604Z,42.92
2022-08-07T20:30:42.930Z,43.39
2022-08-07T20:33:36.731Z,42.57
2022-08-07T20:36:11.013Z,43.21
2022-08-07T20:39:00.088Z,42.64
2022-08-07T20:41:40.783Z,42.98
2022-08-07T20:44:13.030Z,42.82
2022-08-07T20:46:46.756Z,43.48
2022-08-07T20:50:00.247Z,42.97
2022-08-07T20:52:51.517Z,43.25
2022-08-07T20:55:24.446Z,43.16
2022-08-07T20:58:03.447Z,43.84
2022-08-07T21:00:44.583Z,43.46
2022-08-07T21:03:23.183Z,43.87
2022-08-07T21:06:21.698Z,43.45
2022-08-07T21:09:13.987Z,43.02
2022-08-07T21:11:50.005Z,43.74
2022-08-07T21:14:33.886Z,43.75
2022-08-07T21:18:02.093Z,44.45
2022-08-07T21:20:09.834Z,43.41
2022-08-07T21:22:51.200Z,43.43
2022-08-07T21:25:50.942Z,43.18
2022-08-07T21:28:52.843Z,43.49
2022-08-07T21:32:47.866Z,43.82
2022-08-07T21:35:11.275Z,43.74
2022-08-07T21:38:11.804Z,44.00
2022-08-07T21:41:52.421Z,43.69
2022-08-07T21:46:03.294Z,44.08
2022-08-07T21:48:29.075Z,44.02
2022-08-07T21:51:32.261Z,43.64
2022-08-07T21:54:53.371Z,43.77
2022-08-07T21:57:44.823Z,43.99
2022-08-07T22:00:26.105Z,44.43
2022-08-07T22:03:30.772Z,44.09
2022-08-07T22:06:49.837Z,44.18
2022-08-07T22:09:25.834Z,44.71
2022-08-07T22:12:24.983Z,44.57
2022-08-07T22:16:39.028Z,44.48
2022-08-07T22:19:07.396Z,45.20
2022-08-07T22:22:18.222Z,44.48
2022-08-07T22:25:36.617Z,45.15
2022-08-07T22:28:37.895Z,45.15
2022-08-07T22:31:59.615Z,46.01
2022-08-07T22:34:54.828Z,46.22
2022-08-07T22:38:11.050Z,46.63
2022-08-07T22:41:11.896Z,46.92
2022-08-07T22:43:52.373Z,47.49
2022-08-07T22:47:03.859Z,48.11
2022-08-07T22:50:20.813Z,48.96
2022-08-07T22:54:07.801Z,48.72
2022-08-07T22:57:17.110Z,49.73
2022-08-07T23:00:04.029Z,47.68
2022-08-07T23:03:13.332Z,47.91
2022-08-07T23:06:30.577Z,47.06
2022-08-07T23:10:04.074Z,49.21
2022-08-07T23:12:46.069Z,50.04
2022-08-07T23:16:05.697Z,50.40
2022-08-07T23:19:51.446Z,51.03
2022-08-07T23:22:42.471Z,51.11
2022-08-07T23:25:56.705Z,51.00
2022-08-07T23:28:44.242Z,50.55
2022-08-07T23:34:20.880Z,50.40
2022-08-07T23:34:40.791Z,49.62
2022-08-07T23:38:05.749Z,51.80
2022-08-07T23:41:47.700Z,50.07
2022-08-07T23:46:10.835Z,50.90
2022-08-07T23:49:50.635Z,52.18
2022-08-07T23:53:15.483Z,52.36
2022-08-07T23:56:21.452Z,53.34
